Time;durP1;ratioP1;P1;durP2;ratioP2;P2;SDS_P1;SDS_P2;PMS_P1;PMS_P2;Temp;Humidity;BMP_temperature;BMP_pressure;BME280_temperature;BME280_humidity;BME280_pressure;Samples;Min_cycle;Max_cycle;Signal;HPM_P1;HPM_P2
2021/05/20 00:01:16;;;;;;;1.88;0.70;;;24.60;44.00;;;;;;5039129;28;20492;-60
2021/05/20 00:03:41;;;;;;;1.83;0.90;;;24.60;44.00;;;;;;5039632;28;20033;-60
2021/05/20 00:06:07;;;;;;;1.52;0.80;;;24.60;44.00;;;;;;5046283;28;20032;-61
2021/05/20 00:08:33;;;;;;;2.22;0.70;;;24.60;44.00;;;;;;5047011;28;20033;-60
2021/05/20 00:10:58;;;;;;;1.75;0.80;;;24.50;43.90;;;;;;5047079;28;20036;-60
2021/05/20 00:13:24;;;;;;;1.60;1.00;;;24.50;44.00;;;;;;5047124;28;20519;-58
2021/05/20 00:15:50;;;;;;;2.08;0.95;;;24.50;43.90;;;;;;5034169;28;20128;-61
2021/05/20 00:18:15;;;;;;;1.52;0.90;;;24.50;44.00;;;;;;5043776;28;20025;-61
2021/05/20 00:20:41;;;;;;;1.33;0.70;;;24.50;44.00;;;;;;5039148;28;20059;-59
2021/05/20 00:23:06;;;;;;;1.58;0.90;;;24.50;44.00;;;;;;5033060;28;20025;-59
2021/05/20 00:25:32;;;;;;;1.55;0.80;;;24.40;44.00;;;;;;5041440;28;20304;-60
2021/05/20 00:27:58;;;;;;;1.15;0.70;;;24.40;44.00;;;;;;5035358;28;20111;-61
2021/05/20 00:30:24;;;;;;;2.40;0.85;;;24.40;44.00;;;;;;5036702;28;20030;-60
2021/05/20 00:32:49;;;;;;;1.88;0.80;;;24.40;44.00;;;;;;5044068;28;20109;-61
2021/05/20 00:35:15;;;;;;;1.52;0.90;;;24.40;44.00;;;;;;5046997;28;20028;-61
2021/05/20 00:37:40;;;;;;;1.50;0.77;;;24.40;44.00;;;;;;5038184;28;20033;-60
2021/05/20 00:40:07;;;;;;;1.45;0.73;;;24.30;44.00;;;;;;5036450;28;20118;-60
2021/05/20 00:42:33;;;;;;;1.15;0.70;;;24.30;44.00;;;;;;5030196;28;20064;-61
2021/05/20 00:45:05;;;;;;;1.20;0.73;;;24.30;44.00;;;;;;5037960;28;20457;-60
2021/05/20 00:47:33;;;;;;;1.27;0.70;;;24.30;44.00;;;;;;5036571;28;20524;-61
2021/05/20 00:50:00;;;;;;;1.63;0.80;;;24.30;44.00;;;;;;5039944;28;20052;-60
2021/05/20 00:52:26;;;;;;;1.83;0.90;;;24.30;44.00;;;;;;5043851;28;20029;-61
2021/05/20 00:54:55;;;;;;;1.13;0.60;;;24.30;44.00;;;;;;5046489;28;20108;-60
2021/05/20 00:57:22;;;;;;;1.38;0.80;;;24.30;44.00;;;;;;5046318;28;20025;-60
2021/05/20 00:59:51;;;;;;;1.13;0.70;;;24.30;44.00;;;;;;5039633;28;20040;-61
2021/05/20 01:02:18;;;;;;;1.30;0.80;;;24.30;44.00;;;;;;5040647;28;20033;-61
2021/05/20 01:04:44;;;;;;;1.50;0.70;;;24.20;44.00;;;;;;5043004;28;20971;-61
2021/05/20 01:07:10;;;;;;;0.73;0.60;;;24.20;44.10;;;;;;5044211;28;20036;-60
2021/05/20 01:09:36;;;;;;;1.55;0.70;;;24.20;44.50;;;;;;5046973;28;20029;-61
2021/05/20 01:12:06;;;;;;;1.50;0.70;;;24.20;44.00;;;;;;5046653;28;20569;-61
2021/05/20 01:14:39;;;;;;;1.30;0.60;;;24.20;44.10;;;;;;5044605;28;20048;-61
2021/05/20 01:17:05;;;;;;;1.60;0.70;;;24.20;44.10;;;;;;5041586;28;20032;-62
2021/05/20 01:19:31;;;;;;;1.70;0.73;;;24.20;44.10;;;;;;5041787;28;20044;-61
2021/05/20 01:21:57;;;;;;;1.17;0.70;;;24.20;44.10;;;;;;5041362;28;20372;-62
2021/05/20 01:24:22;;;;;;;1.33;0.77;;;24.20;44.10;;;;;;5041860;28;20025;-60
2021/05/20 01:26:49;;;;;;;0.93;0.68;;;24.10;44.00;;;;;;5046138;28;20456;-61
2021/05/20 01:29:15;;;;;;;1.13;0.70;;;24.10;44.00;;;;;;5043347;28;20027;-61
2021/05/20 01:31:41;;;;;;;1.60;0.70;;;24.10;44.00;;;;;;5032499;28;20464;-60
2021/05/20 01:34:08;;;;;;;1.20;0.70;;;24.10;44.10;;;;;;5041812;28;20053;-61
2021/05/20 01:36:34;;;;;;;1.20;0.70;;;24.10;44.10;;;;;;5039076;28;20024;-61
2021/05/20 01:39:00;;;;;;;1.58;0.70;;;24.10;44.10;;;;;;5038811;28;20037;-61
2021/05/20 01:41:27;;;;;;;0.80;0.60;;;24.10;44.10;;;;;;5046037;28;20328;-60
2021/05/20 01:43:52;;;;;;;1.33;0.70;;;24.10;44.10;;;;;;5046595;28;20056;-61
2021/05/20 01:46:19;;;;;;;0.98;0.60;;;24.10;44.10;;;;;;5027636;28;20433;-62
2021/05/20 01:48:46;;;;;;;1.00;0.80;;;24.10;44.10;;;;;;5040282;28;20055;-61
2021/05/20 01:51:17;;;;;;;0.95;0.70;;;24.10;44.10;;;;;;5038724;28;20013;-60
2021/05/20 01:53:45;;;;;;;0.90;0.70;;;24.00;44.00;;;;;;5046838;28;20395;-60
2021/05/20 01:56:13;;;;;;;1.20;0.70;;;24.00;44.10;;;;;;5046521;28;20033;-61
2021/05/20 01:58:38;;;;;;;1.40;0.80;;;24.00;44.10;;;;;;5047216;28;20517;-60
2021/05/20 02:01:05;;;;;;;1.38;0.68;;;24.00;44.10;;;;;;5037706;28;20057;-61
2021/05/20 02:03:32;;;;;;;1.10;0.60;;;24.00;44.10;;;;;;5047544;28;20482;-61
2021/05/20 02:05:58;;;;;;;0.57;0.50;;;24.00;44.10;;;;;;5041905;28;20033;-60
2021/05/20 02:08:25;;;;;;;1.10;0.68;;;24.00;44.10;;;;;;5050227;28;20761;-60
2021/05/20 02:10:51;;;;;;;0.50;0.50;;;23.90;44.10;;;;;;5043134;28;20025;-60
2021/05/20 02:13:16;;;;;;;1.85;0.80;;;23.90;44.10;;;;;;5049752;28;20388;-61
2021/05/20 02:15:42;;;;;;;0.77;0.60;;;24.00;44.10;;;;;;5039604;28;20421;-60
2021/05/20 02:18:08;;;;;;;1.20;0.70;;;23.90;44.10;;;;;;5035325;28;20612;-61
2021/05/20 02:20:34;;;;;;;0.70;0.57;;;23.90;44.10;;;;;;5036925;28;20052;-60
2021/05/20 02:23:00;;;;;;;0.85;0.60;;;23.90;44.10;;;;;;5048494;28;20033;-60
2021/05/20 02:25:26;;;;;;;0.88;0.63;;;23.90;44.10;;;;;;5035345;28;20039;-60
2021/05/20 02:27:52;;;;;;;1.02;0.60;;;23.90;44.10;;;;;;5049582;28;20384;-61
2021/05/20 02:30:18;;;;;;;1.35;0.63;;;23.90;44.10;;;;;;5045820;28;20547;-61
2021/05/20 02:32:44;;;;;;;0.93;0.60;;;23.90;44.10;;;;;;5031174;28;20037;-60
2021/05/20 02:35:10;;;;;;;1.00;0.70;;;23.90;44.10;;;;;;5045503;28;20040;-61
2021/05/20 02:37:36;;;;;;;0.98;0.60;;;23.90;44.10;;;;;;5036618;28;20372;-61
2021/05/20 02:40:04;;;;;;;1.30;0.80;;;23.90;44.10;;;;;;5049619;28;20039;-60
2021/05/20 02:42:30;;;;;;;1.40;0.80;;;23.80;44.10;;;;;;5044287;28;20028;-61
2021/05/20 02:44:56;;;;;;;1.35;1.15;;;23.90;44.10;;;;;;5039011;28;20043;-61
2021/05/20 02:47:21;;;;;;;1.17;0.77;;;23.90;44.10;;;;;;5031241;28;20029;-62
2021/05/20 02:49:47;;;;;;;0.60;0.60;;;23.80;44.10;;;;;;5038823;28;20471;-62
2021/05/20 02:52:13;;;;;;;1.00;0.70;;;23.80;44.10;;;;;;5044990;28;20067;-61
2021/05/20 02:54:40;;;;;;;1.38;0.70;;;23.80;44.10;;;;;;5049137;28;20060;-60
2021/05/20 02:57:06;;;;;;;0.73;0.60;;;23.80;44.10;;;;;;5049775;28;20102;-61
2021/05/20 02:59:32;;;;;;;0.70;0.60;;;23.80;44.20;;;;;;5034395;28;20064;-60
2021/05/20 03:02:05;;;;;;;1.15;0.50;;;23.80;44.20;;;;;;5039130;28;20043;-60
2021/05/20 03:04:35;;;;;;;1.17;0.60;;;23.70;44.10;;;;;;5046833;28;20059;-60
2021/05/20 03:07:01;;;;;;;0.70;0.60;;;23.80;44.20;;;;;;5048811;28;20140;-61
2021/05/20 03:09:27;;;;;;;0.50;0.50;;;23.80;44.20;;;;;;5047256;28;20017;-61
2021/05/20 03:11:55;;;;;;;0.90;0.70;;;23.70;44.10;;;;;;5046326;28;20130;-61
2021/05/20 03:14:21;;;;;;;1.05;0.70;;;23.70;44.10;;;;;;5042631;28;20579;-60
2021/05/20 03:16:47;;;;;;;1.27;0.60;;;23.70;44.10;;;;;;5043523;28;20037;-61
2021/05/20 03:19:13;;;;;;;0.93;0.60;;;23.70;44.20;;;;;;5038950;28;20048;-60
2021/05/20 03:21:39;;;;;;;0.73;0.60;;;23.70;44.20;;;;;;5042588;28;20037;-61
2021/05/20 03:24:05;;;;;;;0.85;0.50;;;23.70;44.20;;;;;;5037760;28;20029;-61
2021/05/20 03:26:31;;;;;;;0.70;0.60;;;23.70;44.20;;;;;;5038633;28;20025;-60
2021/05/20 03:28:57;;;;;;;0.90;0.70;;;23.70;44.20;;;;;;5046308;28;20466;-60
2021/05/20 03:31:22;;;;;;;0.98;0.60;;;23.70;44.20;;;;;;5041198;28;20454;-61
2021/05/20 03:33:49;;;;;;;0.55;0.50;;;23.70;44.20;;;;;;5035552;28;20025;-60
2021/05/20 03:36:15;;;;;;;0.60;0.60;;;23.70;44.20;;;;;;5044342;28;20044;-61
2021/05/20 03:38:40;;;;;;;1.00;0.70;;;23.60;44.20;;;;;;5045849;28;20033;-61
2021/05/20 03:41:06;;;;;;;0.60;0.60;;;23.60;44.20;;;;;;5039605;28;20114;-61
2021/05/20 03:43:36;;;;;;;0.50;0.50;;;23.60;44.20;;;;;;5040417;28;20029;-60
2021/05/20 03:46:03;;;;;;;1.02;0.63;;;23.60;44.20;;;;;;5032881;28;20131;-60
2021/05/20 03:48:29;;;;;;;0.70;0.50;;;23.60;44.20;;;;;;5031011;28;20052;-60
2021/05/20 03:50:56;;;;;;;1.00;0.60;;;23.60;44.20;;;;;;5044403;28;20108;-60
2021/05/20 03:53:22;;;;;;;0.70;0.60;;;23.60;44.20;;;;;;5046291;28;20151;-61
2021/05/20 03:55:49;;;;;;;0.90;0.60;;;23.60;44.20;;;;;;5040199;28;20092;-61
2021/05/20 03:58:15;;;;;;;1.90;0.60;;;23.60;44.30;;;;;;5046276;28;20029;-60
2021/05/20 04:00:40;;;;;;;0.77;0.50;;;23.60;44.20;;;;;;5040798;28;20488;-61
2021/05/20 04:03:06;;;;;;;0.70;0.60;;;23.60;44.30;;;;;;5036333;28;20029;-60
2021/05/20 04:05:32;;;;;;;0.82;0.50;;;23.60;44.30;;;;;;5036330;28;20029;-60
2021/05/20 04:07:58;;;;;;;0.90;0.65;;;23.60;44.30;;;;;;5047128;28;20025;-60
2021/05/20 04:10:24;;;;;;;0.85;0.60;;;23.50;44.20;;;;;;5040361;28;20044;-61
2021/05/20 04:12:50;;;;;;;1.15;0.60;;;23.50;44.30;;;;;;5047138;28;20147;-61
2021/05/20 04:15:16;;;;;;;0.60;0.60;;;23.50;44.30;;;;;;5043259;28;20052;-61
2021/05/20 04:17:42;;;;;;;0.80;0.60;;;23.50;44.30;;;;;;5027171;28;20052;-60
2021/05/20 04:20:08;;;;;;;0.50;0.50;;;23.50;44.30;;;;;;5039715;28;20147;-61
2021/05/20 04:22:34;;;;;;;0.88;0.60;;;23.50;44.30;;;;;;5033694;28;20033;-61
2021/05/20 04:25:00;;;;;;;0.85;0.77;;;23.50;44.30;;;;;;5046511;28;20021;-60
2021/05/20 04:27:25;;;;;;;0.85;0.70;;;23.40;44.30;;;;;;5042499;28;20033;-61
2021/05/20 04:29:51;;;;;;;1.70;0.70;;;23.50;44.30;;;;;;5040719;28;20029;-62
2021/05/20 04:32:16;;;;;;;2.63;0.63;;;23.40;44.30;;;;;;5032511;28;20041;-61
2021/05/20 04:34:44;;;;;;;0.80;0.60;;;23.40;44.30;;;;;;5042981;28;20025;-62
2021/05/20 04:37:10;;;;;;;0.95;0.65;;;23.40;44.30;;;;;;5044777;28;20439;-61
2021/05/20 04:39:36;;;;;;;0.57;0.50;;;23.40;44.30;;;;;;5046853;28;20190;-60
2021/05/20 04:42:02;;;;;;;1.02;0.50;;;23.40;44.30;;;;;;5031305;28;20114;-61
2021/05/20 04:44:28;;;;;;;0.82;0.60;;;23.40;44.30;;;;;;5043877;28;20032;-61
2021/05/20 04:46:54;;;;;;;0.80;0.60;;;23.40;44.30;;;;;;5045151;28;20036;-61
2021/05/20 04:49:19;;;;;;;0.90;0.60;;;23.40;44.40;;;;;;5032981;28;20037;-62
2021/05/20 04:51:45;;;;;;;1.25;0.73;;;23.40;44.40;;;;;;5042263;28;20111;-61
2021/05/20 04:54:11;;;;;;;0.75;0.60;;;23.40;44.50;;;;;;5044752;28;20025;-61
2021/05/20 04:56:37;;;;;;;0.82;0.60;;;23.40;44.40;;;;;;5047069;28;20075;-60
2021/05/20 04:59:03;;;;;;;0.57;0.50;;;23.40;44.40;;;;;;5047378;28;20044;-60
2021/05/20 05:01:28;;;;;;;0.52;0.50;;;23.40;44.40;;;;;;5042093;28;20105;-61
2021/05/20 05:03:56;;;;;;;0.65;0.50;;;23.40;44.50;;;;;;5037418;28;20029;-61
2021/05/20 05:06:21;;;;;;;0.90;0.60;;;23.40;44.50;;;;;;5040876;28;20039;-60
2021/05/20 05:08:47;;;;;;;1.10;0.70;;;23.40;44.50;;;;;;5042168;28;20108;-61
2021/05/20 05:11:13;;;;;;;0.95;0.50;;;23.40;44.50;;;;;;5039230;28;20033;-61
2021/05/20 05:13:38;;;;;;;0.82;0.60;;;23.40;44.50;;;;;;5038920;28;20074;-62
2021/05/20 05:16:04;;;;;;;0.50;0.50;;;23.40;44.50;;;;;;5039110;28;20048;-61
2021/05/20 05:18:29;;;;;;;0.80;0.60;;;23.30;44.50;;;;;;5041365;28;20036;-61
2021/05/20 05:20:55;;;;;;;1.40;0.63;;;23.30;44.50;;;;;;5042448;28;20040;-62
2021/05/20 05:23:21;;;;;;;0.63;0.52;;;23.30;44.50;;;;;;5035227;28;20444;-61
2021/05/20 05:25:50;;;;;;;1.40;0.60;;;23.30;44.50;;;;;;5039032;28;20037;-62
2021/05/20 05:28:16;;;;;;;0.50;0.47;;;23.30;44.50;;;;;;5045905;28;20031;-61
2021/05/20 05:30:43;;;;;;;0.82;0.50;;;23.30;44.50;;;;;;5036946;28;20029;-61
2021/05/20 05:33:09;;;;;;;1.90;0.77;;;23.30;44.50;;;;;;5038910;28;20036;-60
2021/05/20 05:35:34;;;;;;;0.65;0.60;;;23.30;44.50;;;;;;5034672;28;20693;-62
2021/05/20 05:38:00;;;;;;;1.00;0.60;;;23.30;44.90;;;;;;5043707;28;20451;-62
2021/05/20 05:40:26;;;;;;;1.63;0.80;;;23.40;44.80;;;;;;5050921;28;20055;-61
2021/05/20 05:42:51;;;;;;;1.08;0.63;;;23.40;44.60;;;;;;5031314;28;20125;-61
2021/05/20 05:45:17;;;;;;;1.23;0.93;;;23.60;44.60;;;;;;5034068;28;20037;-62
2021/05/20 05:47:42;;;;;;;1.27;0.70;;;23.70;44.30;;;;;;5044676;28;20108;-60
2021/05/20 05:50:12;;;;;;;0.93;0.80;;;23.70;44.10;;;;;;5044123;28;20021;-61
2021/05/20 05:52:37;;;;;;;1.38;0.80;;;23.90;44.00;;;;;;5049636;28;20126;-61
2021/05/20 05:55:04;;;;;;;1.52;0.77;;;23.90;43.70;;;;;;5049729;28;20049;-61
2021/05/20 05:57:30;;;;;;;1.70;0.80;;;24.00;43.50;;;;;;5048081;28;20057;-62
2021/05/20 05:59:56;;;;;;;3.20;0.90;;;24.10;43.40;;;;;;5045952;28;20071;-61
2021/05/20 06:02:22;;;;;;;1.02;0.70;;;24.10;43.20;;;;;;5047052;28;20044;-60
2021/05/20 06:04:49;;;;;;;1.42;0.63;;;24.30;43.20;;;;;;5035338;28;20025;-62
2021/05/20 06:07:14;;;;;;;1.50;0.70;;;24.30;43.00;;;;;;5040242;28;20422;-62
2021/05/20 06:09:40;;;;;;;2.28;0.68;;;24.20;43.00;;;;;;5041201;28;20028;-60
2021/05/20 06:12:06;;;;;;;2.33;0.90;;;24.20;43.10;;;;;;5049005;28;20044;-60
2021/05/20 06:14:32;;;;;;;2.03;0.70;;;24.20;43.20;;;;;;5045371;28;20131;-62
2021/05/20 06:16:57;;;;;;;1.35;0.70;;;24.10;43.20;;;;;;5039993;28;20056;-61
2021/05/20 06:19:23;;;;;;;1.75;0.80;;;24.10;43.30;;;;;;5043987;28;20370;-61
2021/05/20 06:21:48;;;;;;;3.63;1.02;;;24.10;43.30;;;;;;5035189;28;20055;-61
2021/05/20 06:24:14;;;;;;;2.30;0.80;;;24.10;43.30;;;;;;5050081;28;20353;-61
2021/05/20 06:26:45;;;;;;;1.30;0.70;;;24.10;43.30;;;;;;5047028;28;20029;-62
2021/05/20 06:29:10;;;;;;;1.33;0.68;;;24.20;43.40;;;;;;5048685;28;20452;-61
2021/05/20 06:31:36;;;;;;;1.90;0.70;;;24.10;43.30;;;;;;5046695;28;20132;-60
2021/05/20 06:34:02;;;;;;;1.92;0.73;;;24.20;43.30;;;;;;5035710;28;20449;-61
2021/05/20 06:36:28;;;;;;;1.50;0.80;;;24.20;43.30;;;;;;5033035;28;20038;-61
2021/05/20 06:38:53;;;;;;;1.42;0.80;;;24.20;43.20;;;;;;5047932;28;20058;-62
2021/05/20 06:41:20;;;;;;;0.80;0.60;;;24.20;43.20;;;;;;5046458;28;20133;-63
2021/05/20 06:43:45;;;;;;;1.25;0.73;;;24.20;43.20;;;;;;5049004;28;20144;-62
2021/05/20 06:46:11;;;;;;;0.80;0.60;;;24.20;43.10;;;;;;5046758;28;20175;-62
2021/05/20 06:48:37;;;;;;;1.15;0.70;;;24.20;43.20;;;;;;5039193;28;20042;-61
2021/05/20 06:51:04;;;;;;;1.23;0.60;;;24.30;43.40;;;;;;5035531;28;20558;-62
2021/05/20 06:53:31;;;;;;;1.02;0.70;;;24.30;43.20;;;;;;5049533;28;20052;-62
2021/05/20 06:56:00;;;;;;;1.00;0.65;;;24.30;43.10;;;;;;5048917;28;20017;-62
2021/05/20 07:01:11;;;;;;;0.68;0.60;;;24.30;43.10;;;;;;5039183;28;20571;-62
2021/05/20 07:03:37;;;;;;;0.85;0.60;;;24.30;43.00;;;;;;5044703;28;20029;-59
2021/05/20 07:06:02;;;;;;;1.65;0.73;;;24.30;42.90;;;;;;5047366;28;20025;-61
2021/05/20 07:08:28;;;;;;;1.08;0.70;;;24.30;42.90;;;;;;5037622;28;20128;-60
2021/05/20 07:10:55;;;;;;;1.17;0.68;;;24.40;42.90;;;;;;5035439;28;20095;-62
2021/05/20 07:13:21;;;;;;;0.75;0.55;;;24.40;43.00;;;;;;5040416;28;20039;-59
2021/05/20 07:15:48;;;;;;;1.15;0.60;;;24.40;43.00;;;;;;5047461;28;20769;-59
2021/05/20 07:18:15;;;;;;;2.50;0.70;;;24.40;42.90;;;;;;5047916;28;20627;-61
2021/05/20 07:20:41;;;;;;;1.27;0.70;;;24.40;42.80;;;;;;5044374;28;20025;-61
2021/05/20 07:23:15;;;;;;;1.80;0.70;;;24.40;42.80;;;;;;5031586;28;20033;-60
2021/05/20 07:25:42;;;;;;;1.05;0.65;;;24.40;42.70;;;;;;5042335;28;20040;-60
2021/05/20 07:28:08;;;;;;;0.90;0.60;;;24.40;42.70;;;;;;5046398;28;20851;-61
2021/05/20 07:30:34;;;;;;;1.00;0.70;;;24.40;42.70;;;;;;5043451;28;20052;-62
2021/05/20 07:33:00;;;;;;;1.25;0.70;;;24.40;42.70;;;;;;5034952;28;20509;-62
2021/05/20 07:35:26;;;;;;;1.50;0.73;;;24.50;42.70;;;;;;5047385;28;20093;-62
2021/05/20 07:37:52;;;;;;;1.40;0.70;;;24.40;42.60;;;;;;5042568;28;20037;-60
2021/05/20 07:40:18;;;;;;;1.00;0.60;;;24.50;42.60;;;;;;5038767;28;20365;-60
2021/05/20 07:42:45;;;;;;;0.70;0.60;;;24.50;42.70;;;;;;5038312;28;20237;-61
2021/05/20 07:45:12;;;;;;;1.33;0.70;;;24.50;42.70;;;;;;5031917;28;20044;-60
2021/05/20 07:47:39;;;;;;;1.17;0.60;;;24.50;42.60;;;;;;5047568;28;20028;-61
2021/05/20 07:50:05;;;;;;;1.15;0.70;;;24.50;42.60;;;;;;5035824;28;20200;-61
2021/05/20 07:52:31;;;;;;;0.70;0.50;;;24.50;42.60;;;;;;5046470;28;20025;-59
2021/05/20 07:54:57;;;;;;;1.17;0.70;;;24.50;42.50;;;;;;5046305;28;20036;-59
2021/05/20 07:57:23;;;;;;;1.13;0.57;;;24.50;42.50;;;;;;5040626;28;20116;-60
2021/05/20 07:59:50;;;;;;;1.33;0.70;;;24.50;42.50;;;;;;5045150;28;20607;-61
2021/05/20 08:03:02;;;;;;;1.05;0.70;;;24.50;42.50;;;;;;5045047;28;20055;-63
2021/05/20 08:05:08;;;;;;;0.88;0.63;;;24.50;42.40;;;;;;5044330;28;20052;-62
2021/05/20 08:07:45;;;;;;;1.23;0.60;;;24.60;42.40;;;;;;5047404;28;20830;-61
2021/05/20 08:12:43;;;;;;;1.00;0.60;;;24.60;42.40;;;;;;5039518;28;20036;-61
2021/05/20 08:15:09;;;;;;;1.02;0.63;;;24.60;42.40;;;;;;5042538;28;20087;-62
2021/05/20 08:17:35;;;;;;;0.80;0.60;;;24.60;42.40;;;;;;5036072;28;20833;-61
2021/05/20 08:20:01;;;;;;;0.82;0.52;;;24.60;42.40;;;;;;5037391;28;20199;-60
2021/05/20 08:22:27;;;;;;;0.57;0.50;;;24.60;42.40;;;;;;5040159;28;20068;-62
2021/05/20 08:24:53;;;;;;;1.45;0.70;;;24.60;42.40;;;;;;5041469;28;20121;-60
2021/05/20 08:27:20;;;;;;;1.00;0.70;;;24.60;43.00;;;;;;5044842;28;20330;-61
2021/05/20 08:29:46;;;;;;;0.80;0.60;;;24.60;42.40;;;;;;5046701;28;20032;-62
2021/05/20 08:32:12;;;;;;;0.50;0.50;;;24.60;42.40;;;;;;5042502;28;20460;-62
2021/05/20 08:34:37;;;;;;;0.75;0.60;;;24.60;42.30;;;;;;5043215;28;20037;-60
2021/05/20 08:37:03;;;;;;;1.23;0.60;;;24.60;42.30;;;;;;5035414;28;20160;-62
2021/05/20 08:39:29;;;;;;;0.80;0.60;;;24.60;42.30;;;;;;5041524;28;20048;-62
2021/05/20 08:41:55;;;;;;;1.25;0.65;;;24.60;42.20;;;;;;5046691;28;20040;-61
2021/05/20 08:44:25;;;;;;;0.68;0.60;;;24.60;42.20;;;;;;5055177;28;20456;-60
2021/05/20 08:46:55;;;;;;;0.95;0.70;;;24.60;42.10;;;;;;5043022;28;20120;-62
2021/05/20 08:49:20;;;;;;;1.10;0.60;;;24.60;42.10;;;;;;5051088;28;20025;-60
2021/05/20 08:51:49;;;;;;;0.60;0.50;;;24.60;42.10;;;;;;5039402;28;20332;-61
2021/05/20 08:54:16;;;;;;;0.52;0.50;;;24.70;42.10;;;;;;5046168;28;20230;-60
2021/05/20 08:56:52;;;;;;;0.40;0.40;;;24.70;42.10;;;;;;5049884;28;20082;-60
2021/05/20 08:59:19;;;;;;;1.48;0.60;;;24.70;42.00;;;;;;5040980;28;20028;-61
2021/05/20 09:01:45;;;;;;;0.60;0.50;;;24.70;41.90;;;;;;5049294;28;20056;-61
2021/05/20 09:04:11;;;;;;;1.25;0.60;;;24.70;41.80;;;;;;5050488;28;20360;-61
2021/05/20 09:06:38;;;;;;;0.77;0.52;;;24.70;41.70;;;;;;5055054;28;20099;-60
2021/05/20 09:09:08;;;;;;;0.60;0.40;;;24.70;41.70;;;;;;5047170;28;20493;-61
2021/05/20 09:11:34;;;;;;;0.70;0.50;;;24.80;41.70;;;;;;5046772;28;20032;-62
2021/05/20 09:14:05;;;;;;;0.93;0.63;;;24.80;41.90;;;;;;5045911;28;20032;-61
2021/05/20 09:16:35;;;;;;;0.82;0.55;;;24.80;41.90;;;;;;5043043;28;20500;-61
2021/05/20 09:19:01;;;;;;;0.73;0.50;;;24.80;42.10;;;;;;5046420;28;20218;-62
2021/05/20 09:21:27;;;;;;;0.98;0.60;;;24.80;42.10;;;;;;5045602;28;20140;-63
2021/05/20 09:23:53;;;;;;;0.47;0.40;;;24.80;42.20;;;;;;5042946;28;20496;-61
2021/05/20 09:26:33;;;;;;;0.77;0.60;;;24.80;42.40;;;;;;5046754;28;20108;-63
2021/05/20 09:29:08;;;;;;;0.57;0.50;;;24.80;42.20;;;;;;5037607;28;20104;-62
2021/05/20 09:31:47;;;;;;;0.50;0.50;;;24.80;42.40;;;;;;5029092;28;20102;-62
2021/05/20 09:34:18;;;;;;;0.80;0.60;;;24.80;42.10;;;;;;5044177;28;20028;-62
2021/05/20 09:36:50;;;;;;;1.35;0.70;;;24.80;41.80;;;;;;5043457;28;20102;-62
2021/05/20 09:39:17;;;;;;;0.80;0.60;;;24.80;41.70;;;;;;5047020;28;20025;-61
2021/05/20 09:41:43;;;;;;;0.85;0.50;;;24.80;40.30;;;;;;5045328;28;20577;-61
2021/05/20 09:44:29;;;;;;;0.77;0.50;;;24.80;40.80;;;;;;5031050;28;20495;-62
2021/05/20 09:46:55;;;;;;;0.82;0.60;;;24.80;40.40;;;;;;5037536;28;20030;-61
2021/05/20 09:49:24;;;;;;;1.10;0.50;;;24.80;39.40;;;;;;5041693;28;20029;-61
2021/05/20 09:52:19;;;;;;;0.40;0.40;;;24.70;37.80;;;;;;5044884;28;20020;-61
2021/05/20 09:54:45;;;;;;;0.50;0.50;;;24.60;37.00;;;;;;5036349;28;20044;-61
2021/05/20 09:57:29;;;;;;;0.43;0.43;;;24.60;38.60;;;;;;5043498;28;20025;-61
2021/05/20 10:00:09;;;;;;;1.25;0.60;;;24.60;39.20;;;;;;5032388;28;20037;-62
2021/05/20 10:02:36;;;;;;;0.90;0.50;;;24.60;39.90;;;;;;5043507;28;20041;-61
2021/05/20 10:05:18;;;;;;;0.77;0.50;;;24.70;40.10;;;;;;5032413;28;20497;-62
2021/05/20 10:07:44;;;;;;;0.82;0.55;;;24.70;40.70;;;;;;5032895;28;20481;-60
2021/05/20 10:10:09;;;;;;;2.05;0.57;;;24.80;40.80;;;;;;5040155;28;20239;-60
2021/05/20 10:12:36;;;;;;;0.50;0.50;;;24.80;40.70;;;;;;5044818;28;20294;-61
2021/05/20 10:15:03;;;;;;;0.63;0.43;;;24.80;41.20;;;;;;5041972;28;20029;-62
2021/05/20 10:17:29;;;;;;;0.35;0.30;;;24.80;40.70;;;;;;5041031;28;20148;-63
2021/05/20 10:19:56;;;;;;;0.43;0.40;;;24.80;40.70;;;;;;5043248;28;20116;-60
2021/05/20 10:22:23;;;;;;;2.15;0.57;;;24.90;40.80;;;;;;5036266;28;20116;-60
2021/05/20 10:24:50;;;;;;;0.45;0.40;;;24.90;40.80;;;;;;5045940;28;20037;-59
2021/05/20 10:27:17;;;;;;;0.55;0.50;;;24.90;40.80;;;;;;5045628;28;20013;-59
2021/05/20 10:29:43;;;;;;;0.50;0.50;;;24.90;40.90;;;;;;5046866;28;20032;-60
2021/05/20 10:32:09;;;;;;;0.80;0.40;;;25.00;41.20;;;;;;5044726;28;20397;-60
2021/05/20 10:34:36;;;;;;;0.45;0.40;;;25.00;41.10;;;;;;5049229;28;20029;-59
2021/05/20 10:37:06;;;;;;;0.80;0.50;;;25.00;41.20;;;;;;5040061;28;20076;-60
2021/05/20 10:39:32;;;;;;;0.52;0.50;;;25.00;41.40;;;;;;5039730;28;20144;-59
2021/05/20 10:41:58;;;;;;;0.60;0.50;;;25.00;41.30;;;;;;5042290;28;20507;-61
2021/05/20 10:44:25;;;;;;;0.40;0.40;;;25.10;41.30;;;;;;5042815;28;20037;-61
2021/05/20 10:46:57;;;;;;;0.60;0.47;;;25.10;41.30;;;;;;5047860;28;20041;-59
2021/05/20 10:49:54;;;;;;;0.60;0.40;;;25.10;41.40;;;;;;5045518;28;20111;-59
2021/05/20 10:52:41;;;;;;;1.95;0.50;;;25.10;41.50;;;;;;5047339;28;20108;-60
2021/05/20 10:55:12;;;;;;;0.52;0.50;;;25.10;41.40;;;;;;5039118;28;20516;-60
2021/05/20 10:57:56;;;;;;;0.60;0.50;;;25.10;41.40;;;;;;5039376;28;20037;-61
2021/05/20 11:00:34;;;;;;;0.82;0.40;;;25.10;41.30;;;;;;5037916;28;20468;-60
2021/05/20 11:03:00;;;;;;;0.82;0.65;;;25.10;41.30;;;;;;5047084;28;20056;-60
2021/05/20 11:05:41;;;;;;;2.35;0.60;;;25.10;41.20;;;;;;5043918;28;20029;-58
2021/05/20 11:08:07;;;;;;;0.70;0.50;;;25.10;41.20;;;;;;5039697;28;20704;-59
2021/05/20 11:10:39;;;;;;;0.90;0.52;;;25.10;41.10;;;;;;5045884;28;20027;-60
2021/05/20 11:13:05;;;;;;;0.60;0.40;;;25.10;41.10;;;;;;5039630;28;20120;-60
2021/05/20 11:15:31;;;;;;;1.35;0.50;;;25.10;41.20;;;;;;5033929;28;20028;-59
2021/05/20 11:18:33;;;;;;;1.05;0.60;;;25.10;41.20;;;;;;5036463;28;20025;-56
2021/05/20 11:20:59;;;;;;;0.77;0.50;;;25.10;41.30;;;;;;5041125;28;20048;-60
2021/05/20 11:23:26;;;;;;;0.85;0.50;;;25.10;41.30;;;;;;5039497;28;20036;-59
2021/05/20 11:26:05;;;;;;;0.60;0.60;;;25.10;41.30;;;;;;5031759;28;20053;-60
2021/05/20 11:28:38;;;;;;;0.82;0.40;;;25.10;41.30;;;;;;5042423;28;20029;-59
2021/05/20 11:31:04;;;;;;;0.88;0.50;;;25.10;41.30;;;;;;5040092;28;20156;-59
2021/05/20 11:33:35;;;;;;;0.88;0.50;;;25.10;41.20;;;;;;5029501;28;20128;-58
2021/05/20 11:38:27;;;;;;;1.48;0.50;;;25.10;41.30;;;;;;5033804;28;20036;-59
2021/05/20 11:40:53;;;;;;;0.98;0.50;;;25.20;41.30;;;;;;5042310;28;20101;-56
2021/05/20 11:43:27;;;;;;;0.63;0.50;;;25.10;41.30;;;;;;5037950;28;20152;-60
2021/05/20 11:45:52;;;;;;;0.60;0.43;;;25.20;41.40;;;;;;5044230;28;20032;-59
2021/05/20 11:48:18;;;;;;;0.50;0.40;;;25.20;41.40;;;;;;5048815;28;20033;-60
2021/05/20 11:50:51;;;;;;;0.50;0.43;;;25.20;41.30;;;;;;5047665;28;20078;-60
2021/05/20 11:53:16;;;;;;;0.55;0.50;;;25.20;41.40;;;;;;5040814;28;20416;-60
2021/05/20 11:55:43;;;;;;;0.60;0.50;;;25.20;41.40;;;;;;5048154;28;20118;-60
2021/05/20 11:58:09;;;;;;;0.60;0.50;;;25.20;41.40;;;;;;5043458;28;20116;-60
2021/05/20 12:00:34;;;;;;;0.85;0.50;;;25.20;41.40;;;;;;5042631;28;20112;-60
2021/05/20 12:03:00;;;;;;;0.40;0.40;;;25.20;41.30;;;;;;5044013;28;20037;-60
2021/05/20 12:05:26;;;;;;;0.40;0.40;;;25.20;41.20;;;;;;5043478;28;20077;-61
2021/05/20 12:07:52;;;;;;;0.70;0.45;;;25.20;41.20;;;;;;5043371;28;20025;-62
2021/05/20 12:10:19;;;;;;;0.88;0.50;;;25.20;41.10;;;;;;5030195;28;20036;-61
2021/05/20 12:13:07;;;;;;;0.80;0.50;;;25.20;41.00;;;;;;5044742;28;20040;-60
2021/05/20 12:15:33;;;;;;;0.80;0.40;;;25.20;41.20;;;;;;5043108;28;20325;-58
2021/05/20 12:18:00;;;;;;;0.80;0.50;;;25.20;41.20;;;;;;5037824;28;20028;-60
2021/05/20 12:20:27;;;;;;;1.52;0.52;;;25.30;41.30;;;;;;5036009;28;20075;-59
2021/05/20 12:22:53;;;;;;;1.38;0.65;;;25.30;41.40;;;;;;5032648;28;20053;-59
2021/05/20 12:25:24;;;;;;;1.33;0.50;;;25.30;41.40;;;;;;5033232;28;20412;-59
2021/05/20 12:27:54;;;;;;;0.55;0.40;;;25.30;41.40;;;;;;5034437;28;20034;-60
2021/05/20 12:30:38;;;;;;;0.40;0.40;;;25.30;41.40;;;;;;5035310;28;20064;-59
2021/05/20 12:33:06;;;;;;;0.50;0.50;;;25.30;41.30;;;;;;5041032;28;20067;-60
2021/05/20 12:35:32;;;;;;;0.65;0.50;;;25.30;41.30;;;;;;5044716;28;20068;-60
2021/05/20 12:38:08;;;;;;;1.00;0.50;;;25.30;41.40;;;;;;5043115;28;20082;-59
2021/05/20 12:40:39;;;;;;;0.60;0.52;;;25.30;41.50;;;;;;5043570;28;20029;-60
2021/05/20 12:43:12;;;;;;;0.82;0.60;;;25.30;41.40;;;;;;5040422;28;20040;-60
2021/05/20 12:45:41;;;;;;;0.90;0.52;;;25.30;41.40;;;;;;5041758;28;20028;-60
2021/05/20 12:48:25;;;;;;;1.08;0.50;;;25.30;41.40;;;;;;5033763;28;20128;-59
2021/05/20 12:50:51;;;;;;;0.57;0.50;;;25.30;41.30;;;;;;5045003;28;20052;-60
2021/05/20 12:53:39;;;;;;;1.15;0.60;;;25.30;41.40;;;;;;5037802;28;20057;-61
2021/05/20 12:56:26;;;;;;;0.98;0.50;;;25.30;41.40;;;;;;5041348;28;20151;-59
2021/05/20 12:59:03;;;;;;;1.13;0.60;;;25.30;41.40;;;;;;5035108;28;20467;-60